sensor_id;sensor_type;location;lat;lon;timestamp;P1;durP1;ratioP1;P2;durP2;ratioP2
43933;SDS011;59081;42.706;23.306;2023-09-07T00:03:54;12.60;;;9.05;;
43933;SDS011;59081;42.706;23.306;2023-09-07T00:09:02;12.48;;;7.90;;
43933;SDS011;59081;42.706;23.306;2023-09-07T00:14:22;12.10;;;8.55;;
43933;SDS011;59081;42.706;23.306;2023-09-07T00:19:48;9.32;;;8.13;;
43933;SDS011;59081;42.706;23.306;2023-09-07T00:24:54;11.38;;;8.30;;
43933;SDS011;59081;42.706;23.306;2023-09-07T00:30:29;13.95;;;9.15;;
43933;SDS011;59081;42.706;23.306;2023-09-07T00:41:12;10.60;;;9.20;;
43933;SDS011;59081;42.706;23.306;2023-09-07T00:46:27;13.65;;;9.90;;
43933;SDS011;59081;42.706;23.306;2023-09-07T00:51:38;16.70;;;9.32;;
43933;SDS011;59081;42.706;23.306;2023-09-07T00:57:05;12.88;;;8.98;;
43933;SDS011;59081;42.706;23.306;2023-09-07T01:02:17;15.63;;;10.43;;
43933;SDS011;59081;42.706;23.306;2023-09-07T01:13:12;20.65;;;10.05;;
43933;SDS011;59081;42.706;23.306;2023-09-07T01:18:13;14.88;;;11.20;;
43933;SDS011;59081;42.706;23.306;2023-09-07T01:23:20;13.25;;;10.30;;
43933;SDS011;59081;42.706;23.306;2023-09-07T01:28:49;15.30;;;9.60;;
43933;SDS011;59081;42.706;23.306;2023-09-07T01:34:11;19.80;;;11.35;;
43933;SDS011;59081;42.706;23.306;2023-09-07T01:39:31;15.25;;;11.05;;
43933;SDS011;59081;42.706;23.306;2023-09-07T01:44:47;14.02;;;11.75;;
43933;SDS011;59081;42.706;23.306;2023-09-07T01:50:01;14.38;;;11.02;;
43933;SDS011;59081;42.706;23.306;2023-09-07T01:55:05;16.73;;;12.02;;
43933;SDS011;59081;42.706;23.306;2023-09-07T02:00:13;17.33;;;12.05;;
43933;SDS011;59081;42.706;23.306;2023-09-07T02:05:38;14.18;;;11.50;;
43933;SDS011;59081;42.706;23.306;2023-09-07T02:10:52;16.85;;;13.18;;
43933;SDS011;59081;42.706;23.306;2023-09-07T02:15:56;16.90;;;13.88;;
43933;SDS011;59081;42.706;23.306;2023-09-07T02:21:05;21.73;;;13.30;;
43933;SDS011;59081;42.706;23.306;2023-09-07T02:26:14;18.52;;;12.00;;
43933;SDS011;59081;42.706;23.306;2023-09-07T02:31:41;16.42;;;13.18;;
43933;SDS011;59081;42.706;23.306;2023-09-07T02:42:48;17.35;;;12.27;;
43933;SDS011;59081;42.706;23.306;2023-09-07T02:53:32;22.65;;;13.75;;
43933;SDS011;59081;42.706;23.306;2023-09-07T02:59:11;21.48;;;13.25;;
43933;SDS011;59081;42.706;23.306;2023-09-07T03:04:32;19.65;;;14.50;;
43933;SDS011;59081;42.706;23.306;2023-09-07T03:09:37;19.30;;;16.05;;
43933;SDS011;59081;42.706;23.306;2023-09-07T03:14:56;20.85;;;15.43;;
43933;SDS011;59081;42.706;23.306;2023-09-07T03:20:12;18.90;;;15.10;;
43933;SDS011;59081;42.706;23.306;2023-09-07T03:25:30;19.38;;;14.98;;
43933;SDS011;59081;42.706;23.306;2023-09-07T03:30:37;20.27;;;14.35;;
43933;SDS011;59081;42.706;23.306;2023-09-07T03:35:53;22.25;;;14.75;;
43933;SDS011;59081;42.706;23.306;2023-09-07T03:41:09;18.42;;;15.43;;
43933;SDS011;59081;42.706;23.306;2023-09-07T03:46:28;21.13;;;16.98;;
43933;SDS011;59081;42.706;23.306;2023-09-07T03:51:41;23.55;;;16.40;;
43933;SDS011;59081;42.706;23.306;2023-09-07T03:57:15;19.70;;;15.50;;
43933;SDS011;59081;42.706;23.306;2023-09-07T04:02:28;23.65;;;16.30;;
43933;SDS011;59081;42.706;23.306;2023-09-07T04:07:58;21.17;;;16.40;;
43933;SDS011;59081;42.706;23.306;2023-09-07T04:13:20;21.85;;;16.08;;
43933;SDS011;59081;42.706;23.306;2023-09-07T04:23:56;21.15;;;16.05;;
43933;SDS011;59081;42.706;23.306;2023-09-07T04:34:27;22.95;;;17.48;;
43933;SDS011;59081;42.706;23.306;2023-09-07T04:39:34;25.40;;;18.17;;
43933;SDS011;59081;42.706;23.306;2023-09-07T04:44:50;24.10;;;17.25;;
43933;SDS011;59081;42.706;23.306;2023-09-07T04:50:13;28.90;;;18.88;;
43933;SDS011;59081;42.706;23.306;2023-09-07T05:01:10;28.52;;;17.42;;
43933;SDS011;59081;42.706;23.306;2023-09-07T05:06:38;26.60;;;18.75;;
43933;SDS011;59081;42.706;23.306;2023-09-07T05:11:40;25.48;;;18.33;;
43933;SDS011;59081;42.706;23.306;2023-09-07T05:16:55;22.58;;;16.35;;
43933;SDS011;59081;42.706;23.306;2023-09-07T05:22:07;28.88;;;17.30;;
43933;SDS011;59081;42.706;23.306;2023-09-07T05:27:41;24.75;;;16.23;;
43933;SDS011;59081;42.706;23.306;2023-09-07T05:33:00;21.52;;;16.45;;
43933;SDS011;59081;42.706;23.306;2023-09-07T05:38:06;22.90;;;17.10;;
43933;SDS011;59081;42.706;23.306;2023-09-07T05:43:28;28.25;;;16.50;;
43933;SDS011;59081;42.706;23.306;2023-09-07T05:48:51;30.17;;;18.17;;
43933;SDS011;59081;42.706;23.306;2023-09-07T05:54:01;26.15;;;18.30;;
43933;SDS011;59081;42.706;23.306;2023-09-07T05:59:13;22.23;;;14.88;;
43933;SDS011;59081;42.706;23.306;2023-09-07T06:04:26;22.13;;;17.88;;
43933;SDS011;59081;42.706;23.306;2023-09-07T06:09:38;31.38;;;18.33;;
43933;SDS011;59081;42.706;23.306;2023-09-07T06:14:49;25.63;;;15.97;;
43933;SDS011;59081;42.706;23.306;2023-09-07T06:19:59;23.85;;;16.98;;
43933;SDS011;59081;42.706;23.306;2023-09-07T06:25:08;18.23;;;13.98;;
43933;SDS011;59081;42.706;23.306;2023-09-07T06:36:02;13.80;;;10.82;;
43933;SDS011;59081;42.706;23.306;2023-09-07T06:41:15;21.52;;;11.48;;
43933;SDS011;59081;42.706;23.306;2023-09-07T06:46:30;14.45;;;10.10;;
43933;SDS011;59081;42.706;23.306;2023-09-07T06:57:13;24.58;;;10.65;;
43933;SDS011;59081;42.706;23.306;2023-09-07T07:02:39;15.68;;;10.68;;
43933;SDS011;59081;42.706;23.306;2023-09-07T07:07:53;11.30;;;9.07;;
43933;SDS011;59081;42.706;23.306;2023-09-07T07:13:19;14.32;;;8.30;;
43933;SDS011;59081;42.706;23.306;2023-09-07T07:18:48;14.27;;;8.10;;
43933;SDS011;59081;42.706;23.306;2023-09-07T07:24:02;12.15;;;8.70;;
43933;SDS011;59081;42.706;23.306;2023-09-07T07:29:08;15.90;;;9.00;;
43933;SDS011;59081;42.706;23.306;2023-09-07T07:39:50;10.93;;;5.38;;
43933;SDS011;59081;42.706;23.306;2023-09-07T07:45:00;9.38;;;5.75;;
43933;SDS011;59081;42.706;23.306;2023-09-07T07:50:09;9.07;;;6.72;;
43933;SDS011;59081;42.706;23.306;2023-09-07T07:55:26;11.90;;;7.25;;
43933;SDS011;59081;42.706;23.306;2023-09-07T08:00:44;10.30;;;6.38;;
43933;SDS011;59081;42.706;23.306;2023-09-07T08:06:02;14.18;;;6.93;;
43933;SDS011;59081;42.706;23.306;2023-09-07T08:11:10;12.85;;;7.45;;
43933;SDS011;59081;42.706;23.306;2023-09-07T08:16:23;14.48;;;6.72;;
43933;SDS011;59081;42.706;23.306;2023-09-07T08:21:43;9.35;;;5.75;;
43933;SDS011;59081;42.706;23.306;2023-09-07T08:26:55;8.85;;;5.20;;
43933;SDS011;59081;42.706;23.306;2023-09-07T08:32:04;12.65;;;5.85;;
43933;SDS011;59081;42.706;23.306;2023-09-07T08:37:31;9.95;;;5.47;;
43933;SDS011;59081;42.706;23.306;2023-09-07T08:42:48;8.52;;;5.22;;
43933;SDS011;59081;42.706;23.306;2023-09-07T08:47:55;8.30;;;5.40;;
43933;SDS011;59081;42.706;23.306;2023-09-07T08:58:45;7.03;;;5.72;;
43933;SDS011;59081;42.706;23.306;2023-09-07T09:04:02;7.60;;;5.10;;
43933;SDS011;59081;42.706;23.306;2023-09-07T09:09:07;9.80;;;5.60;;
43933;SDS011;59081;42.706;23.306;2023-09-07T09:14:16;8.77;;;5.65;;
43933;SDS011;59081;42.706;23.306;2023-09-07T09:19:36;8.18;;;5.60;;
43933;SDS011;59081;42.706;23.306;2023-09-07T09:24:43;11.52;;;5.57;;
43933;SDS011;59081;42.706;23.306;2023-09-07T09:29:49;8.77;;;5.67;;
43933;SDS011;59081;42.706;23.306;2023-09-07T09:35:18;8.60;;;5.00;;
43933;SDS011;59081;42.706;23.306;2023-09-07T09:40:38;8.55;;;5.50;;
43933;SDS011;59081;42.706;23.306;2023-09-07T09:45:45;8.10;;;4.90;;
43933;SDS011;59081;42.706;23.306;2023-09-07T09:51:06;6.82;;;4.07;;
43933;SDS011;59081;42.706;23.306;2023-09-07T09:56:13;10.52;;;4.55;;
43933;SDS011;59081;42.706;23.306;2023-09-07T10:01:35;5.43;;;4.60;;
43933;SDS011;59081;42.706;23.306;2023-09-07T10:07:04;7.63;;;4.93;;
43933;SDS011;59081;42.706;23.306;2023-09-07T10:12:26;16.63;;;5.45;;
43933;SDS011;59081;42.706;23.306;2023-09-07T10:17:41;9.15;;;4.97;;
43933;SDS011;59081;42.706;23.306;2023-09-07T10:22:49;10.02;;;6.20;;
43933;SDS011;59081;42.706;23.306;2023-09-07T10:28:24;10.93;;;5.50;;
43933;SDS011;59081;42.706;23.306;2023-09-07T10:39:33;7.88;;;5.25;;
43933;SDS011;59081;42.706;23.306;2023-09-07T10:44:40;8.05;;;5.00;;
43933;SDS011;59081;42.706;23.306;2023-09-07T10:49:44;7.60;;;4.97;;
43933;SDS011;59081;42.706;23.306;2023-09-07T10:55:14;9.25;;;5.03;;
43933;SDS011;59081;42.706;23.306;2023-09-07T11:00:22;7.60;;;5.65;;
43933;SDS011;59081;42.706;23.306;2023-09-07T11:05:31;7.30;;;4.45;;
43933;SDS011;59081;42.706;23.306;2023-09-07T11:10:45;11.05;;;4.63;;
43933;SDS011;59081;42.706;23.306;2023-09-07T11:16:01;6.55;;;3.95;;
43933;SDS011;59081;42.706;23.306;2023-09-07T11:21:19;6.15;;;4.00;;
43933;SDS011;59081;42.706;23.306;2023-09-07T11:38:03;10.45;;;4.28;;
43933;SDS011;59081;42.706;23.306;2023-09-07T11:43:13;7.15;;;4.30;;
43933;SDS011;59081;42.706;23.306;2023-09-07T11:48:26;8.80;;;4.10;;
43933;SDS011;59081;42.706;23.306;2023-09-07T11:53:37;10.73;;;4.65;;
43933;SDS011;59081;42.706;23.306;2023-09-07T11:59:02;6.45;;;4.15;;
43933;SDS011;59081;42.706;23.306;2023-09-07T12:04:15;8.52;;;4.32;;
43933;SDS011;59081;42.706;23.306;2023-09-07T12:09:34;6.90;;;4.38;;
43933;SDS011;59081;42.706;23.306;2023-09-07T12:14:53;5.63;;;4.55;;
43933;SDS011;59081;42.706;23.306;2023-09-07T12:20:07;7.43;;;4.25;;
43933;SDS011;59081;42.706;23.306;2023-09-07T12:25:31;10.45;;;4.53;;
43933;SDS011;59081;42.706;23.306;2023-09-07T12:31:01;7.28;;;4.30;;
43933;SDS011;59081;42.706;23.306;2023-09-07T12:36:02;5.97;;;4.00;;
43933;SDS011;59081;42.706;23.306;2023-09-07T12:41:14;4.72;;;3.70;;
43933;SDS011;59081;42.706;23.306;2023-09-07T12:46:51;10.30;;;3.90;;
43933;SDS011;59081;42.706;23.306;2023-09-07T12:51:57;5.45;;;4.15;;
43933;SDS011;59081;42.706;23.306;2023-09-07T12:57:16;6.87;;;4.03;;
43933;SDS011;59081;42.706;23.306;2023-09-07T13:02:28;7.35;;;3.88;;
43933;SDS011;59081;42.706;23.306;2023-09-07T13:07:35;7.45;;;4.68;;
43933;SDS011;59081;42.706;23.306;2023-09-07T13:13:17;5.22;;;3.70;;
43933;SDS011;59081;42.706;23.306;2023-09-07T13:18:32;7.60;;;3.72;;
43933;SDS011;59081;42.706;23.306;2023-09-07T13:23:48;5.18;;;3.92;;
43933;SDS011;59081;42.706;23.306;2023-09-07T13:28:56;8.80;;;4.07;;
43933;SDS011;59081;42.706;23.306;2023-09-07T13:34:08;10.27;;;4.07;;
43933;SDS011;59081;42.706;23.306;2023-09-07T13:39:27;5.45;;;3.42;;
43933;SDS011;59081;42.706;23.306;2023-09-07T13:44:30;5.18;;;3.40;;
43933;SDS011;59081;42.706;23.306;2023-09-07T13:49:42;8.27;;;4.18;;
43933;SDS011;59081;42.706;23.306;2023-09-07T13:54:58;10.00;;;4.47;;
43933;SDS011;59081;42.706;23.306;2023-09-07T14:00:13;5.53;;;4.30;;
43933;SDS011;59081;42.706;23.306;2023-09-07T14:05:40;5.47;;;4.10;;
43933;SDS011;59081;42.706;23.306;2023-09-07T14:11:06;8.60;;;4.95;;
43933;SDS011;59081;42.706;23.306;2023-09-07T14:16:15;8.32;;;5.03;;
43933;SDS011;59081;42.706;23.306;2023-09-07T14:22:05;9.32;;;5.22;;
43933;SDS011;59081;42.706;23.306;2023-09-07T14:27:18;7.63;;;4.47;;
43933;SDS011;59081;42.706;23.306;2023-09-07T14:37:58;7.88;;;4.60;;
43933;SDS011;59081;42.706;23.306;2023-09-07T14:43:00;9.88;;;4.05;;
43933;SDS011;59081;42.706;23.306;2023-09-07T14:48:25;11.10;;;4.95;;
43933;SDS011;59081;42.706;23.306;2023-09-07T14:53:48;8.68;;;4.75;;
43933;SDS011;59081;42.706;23.306;2023-09-07T14:59:03;7.72;;;3.90;;
43933;SDS011;59081;42.706;23.306;2023-09-07T15:04:20;7.45;;;4.75;;
43933;SDS011;59081;42.706;23.306;2023-09-07T15:09:40;6.05;;;4.15;;
43933;SDS011;59081;42.706;23.306;2023-09-07T15:14:56;8.07;;;5.20;;
43933;SDS011;59081;42.706;23.306;2023-09-07T15:20:20;8.57;;;5.03;;
43933;SDS011;59081;42.706;23.306;2023-09-07T15:25:26;10.88;;;4.85;;
43933;SDS011;59081;42.706;23.306;2023-09-07T15:30:30;7.82;;;4.85;;
43933;SDS011;59081;42.706;23.306;2023-09-07T15:35:58;8.77;;;5.15;;
43933;SDS011;59081;42.706;23.306;2023-09-07T15:41:40;11.98;;;4.82;;
43933;SDS011;59081;42.706;23.306;2023-09-07T15:52:20;9.45;;;5.72;;
43933;SDS011;59081;42.706;23.306;2023-09-07T15:57:35;9.43;;;5.13;;
43933;SDS011;59081;42.706;23.306;2023-09-07T16:02:56;7.13;;;5.28;;
43933;SDS011;59081;42.706;23.306;2023-09-07T16:08:09;9.35;;;6.55;;
43933;SDS011;59081;42.706;23.306;2023-09-07T16:13:32;10.63;;;4.97;;
43933;SDS011;59081;42.706;23.306;2023-09-07T16:18:37;8.82;;;4.82;;
43933;SDS011;59081;42.706;23.306;2023-09-07T16:23:49;9.75;;;5.68;;
43933;SDS011;59081;42.706;23.306;2023-09-07T16:29:04;18.95;;;7.90;;
43933;SDS011;59081;42.706;23.306;2023-09-07T16:34:15;10.20;;;6.82;;
43933;SDS011;59081;42.706;23.306;2023-09-07T16:44:49;11.07;;;5.65;;
43933;SDS011;59081;42.706;23.306;2023-09-07T16:55:25;11.75;;;7.13;;
43933;SDS011;59081;42.706;23.306;2023-09-07T17:00:48;11.70;;;7.28;;
43933;SDS011;59081;42.706;23.306;2023-09-07T17:05:57;17.75;;;6.25;;
43933;SDS011;59081;42.706;23.306;2023-09-07T17:11:06;6.93;;;4.45;;
43933;SDS011;59081;42.706;23.306;2023-09-07T17:16:12;9.65;;;5.38;;
43933;SDS011;59081;42.706;23.306;2023-09-07T17:27:01;10.95;;;6.75;;
43933;SDS011;59081;42.706;23.306;2023-09-07T17:32:10;14.18;;;9.18;;
43933;SDS011;59081;42.706;23.306;2023-09-07T17:37:23;18.42;;;13.98;;
43933;SDS011;59081;42.706;23.306;2023-09-07T17:42:48;9.68;;;5.65;;
43933;SDS011;59081;42.706;23.306;2023-09-07T17:48:07;8.65;;;5.55;;
43933;SDS011;59081;42.706;23.306;2023-09-07T17:53:23;13.18;;;8.18;;
43933;SDS011;59081;42.706;23.306;2023-09-07T17:58:42;9.07;;;5.68;;
43933;SDS011;59081;42.706;23.306;2023-09-07T18:04:06;6.53;;;4.85;;
43933;SDS011;59081;42.706;23.306;2023-09-07T18:09:41;12.13;;;6.05;;
43933;SDS011;59081;42.706;23.306;2023-09-07T18:15:07;8.65;;;5.70;;
43933;SDS011;59081;42.706;23.306;2023-09-07T18:20:09;12.60;;;7.10;;
43933;SDS011;59081;42.706;23.306;2023-09-07T18:25:12;8.25;;;6.57;;
43933;SDS011;59081;42.706;23.306;2023-09-07T18:35:43;12.30;;;6.25;;
43933;SDS011;59081;42.706;23.306;2023-09-07T18:40:59;13.25;;;9.07;;
43933;SDS011;59081;42.706;23.306;2023-09-07T18:46:06;23.52;;;16.45;;
43933;SDS011;59081;42.706;23.306;2023-09-07T18:51:07;10.30;;;7.70;;
43933;SDS011;59081;42.706;23.306;2023-09-07T18:56:08;16.07;;;8.43;;
43933;SDS011;59081;42.706;23.306;2023-09-07T19:01:12;16.77;;;9.73;;
43933;SDS011;59081;42.706;23.306;2023-09-07T19:06:14;13.57;;;8.48;;
43933;SDS011;59081;42.706;23.306;2023-09-07T19:11:15;27.50;;;18.87;;
43933;SDS011;59081;42.706;23.306;2023-09-07T19:16:15;15.43;;;11.33;;
43933;SDS011;59081;42.706;23.306;2023-09-07T19:21:17;22.60;;;11.43;;
43933;SDS011;59081;42.706;23.306;2023-09-07T19:31:49;12.60;;;9.17;;
43933;SDS011;59081;42.706;23.306;2023-09-07T19:36:50;17.33;;;9.10;;
43933;SDS011;59081;42.706;23.306;2023-09-07T19:41:50;21.13;;;16.00;;
43933;SDS011;59081;42.706;23.306;2023-09-07T19:46:51;26.20;;;15.63;;
43933;SDS011;59081;42.706;23.306;2023-09-07T19:51:52;18.00;;;11.43;;
43933;SDS011;59081;42.706;23.306;2023-09-07T19:56:52;15.37;;;8.67;;
43933;SDS011;59081;42.706;23.306;2023-09-07T20:01:56;11.37;;;7.10;;
43933;SDS011;59081;42.706;23.306;2023-09-07T20:07:01;12.45;;;7.97;;
43933;SDS011;59081;42.706;23.306;2023-09-07T20:12:03;11.95;;;8.57;;
43933;SDS011;59081;42.706;23.306;2023-09-07T20:17:04;11.87;;;6.50;;
43933;SDS011;59081;42.706;23.306;2023-09-07T20:22:04;9.30;;;6.35;;
43933;SDS011;59081;42.706;23.306;2023-09-07T20:27:05;16.83;;;5.90;;
43933;SDS011;59081;42.706;23.306;2023-09-07T20:32:05;11.48;;;5.28;;
43933;SDS011;59081;42.706;23.306;2023-09-07T20:37:05;7.82;;;4.85;;
43933;SDS011;59081;42.706;23.306;2023-09-07T20:42:06;8.00;;;5.03;;
43933;SDS011;59081;42.706;23.306;2023-09-07T20:47:07;6.53;;;4.80;;
43933;SDS011;59081;42.706;23.306;2023-09-07T20:52:08;10.95;;;4.60;;
43933;SDS011;59081;42.706;23.306;2023-09-07T20:57:08;7.75;;;4.72;;
43933;SDS011;59081;42.706;23.306;2023-09-07T21:02:09;4.25;;;3.33;;
43933;SDS011;59081;42.706;23.306;2023-09-07T21:07:09;8.25;;;3.97;;
43933;SDS011;59081;42.706;23.306;2023-09-07T21:12:10;7.80;;;4.20;;
43933;SDS011;59081;42.706;23.306;2023-09-07T21:17:10;6.43;;;3.47;;
43933;SDS011;59081;42.706;23.306;2023-09-07T21:22:11;10.57;;;4.53;;
43933;SDS011;59081;42.706;23.306;2023-09-07T21:27:12;7.22;;;3.55;;
43933;SDS011;59081;42.706;23.306;2023-09-07T21:32:13;9.02;;;4.18;;
43933;SDS011;59081;42.706;23.306;2023-09-07T21:37:14;8.15;;;4.10;;
43933;SDS011;59081;42.706;23.306;2023-09-07T21:42:14;8.23;;;4.03;;
43933;SDS011;59081;42.706;23.306;2023-09-07T21:47:15;14.50;;;4.20;;
43933;SDS011;59081;42.706;23.306;2023-09-07T21:52:15;5.55;;;4.07;;
43933;SDS011;59081;42.706;23.306;2023-09-07T21:57:16;6.57;;;4.40;;
43933;SDS011;59081;42.706;23.306;2023-09-07T22:02:19;10.80;;;4.15;;
43933;SDS011;59081;42.706;23.306;2023-09-07T22:07:21;6.38;;;4.05;;
43933;SDS011;59081;42.706;23.306;2023-09-07T22:12:21;6.43;;;3.58;;
43933;SDS011;59081;42.706;23.306;2023-09-07T22:17:22;6.47;;;3.95;;
43933;SDS011;59081;42.706;23.306;2023-09-07T22:22:22;6.20;;;4.30;;
43933;SDS011;59081;42.706;23.306;2023-09-07T22:27:26;6.13;;;4.38;;
43933;SDS011;59081;42.706;23.306;2023-09-07T22:32:26;5.50;;;4.32;;
43933;SDS011;59081;42.706;23.306;2023-09-07T22:37:27;6.40;;;4.57;;
43933;SDS011;59081;42.706;23.306;2023-09-07T22:42:28;5.13;;;3.75;;
43933;SDS011;59081;42.706;23.306;2023-09-07T22:47:28;7.00;;;4.22;;
43933;SDS011;59081;42.706;23.306;2023-09-07T22:52:29;8.70;;;4.45;;
43933;SDS011;59081;42.706;23.306;2023-09-07T22:57:30;8.02;;;4.38;;
43933;SDS011;59081;42.706;23.306;2023-09-07T23:02:33;8.32;;;4.53;;
43933;SDS011;59081;42.706;23.306;2023-09-07T23:07:34;8.45;;;4.75;;
43933;SDS011;59081;42.706;23.306;2023-09-07T23:12:34;7.90;;;4.55;;
43933;SDS011;59081;42.706;23.306;2023-09-07T23:17:35;9.13;;;5.72;;
43933;SDS011;59081;42.706;23.306;2023-09-07T23:22:35;8.30;;;5.43;;
43933;SDS011;59081;42.706;23.306;2023-09-07T23:27:37;10.20;;;5.97;;
43933;SDS011;59081;42.706;23.306;2023-09-07T23:32:38;14.50;;;7.03;;
43933;SDS011;59081;42.706;23.306;2023-09-07T23:37:40;12.10;;;7.07;;
43933;SDS011;59081;42.706;23.306;2023-09-07T23:42:40;11.30;;;8.07;;
43933;SDS011;59081;42.706;23.306;2023-09-07T23:47:41;17.30;;;9.60;;
43933;SDS011;59081;42.706;23.306;2023-09-07T23:52:42;14.65;;;8.55;;
43933;SDS011;59081;42.706;23.306;2023-09-07T23:57:42;14.70;;;11.98;;
